Time;durP1;ratioP1;P1;durP2;ratioP2;P2;SDS_P1;SDS_P2;PMS_P1;PMS_P2;Temp;Humidity;BMP_temperature;BMP_pressure;BME280_temperature;BME280_humidity;BME280_pressure;Samples;Min_cycle;Max_cycle;Signal;HPM_P1;HPM_P2
2022/03/11 00:00:37;;;;;;;7.60;6.80;;;5.70;62.80;;;;;;10501202;28;20196;-80
2022/03/11 00:05:43;;;;;;;7.23;6.53;;;5.60;62.60;;;;;;10481853;28;20311;-79
2022/03/11 00:10:45;;;;;;;9.10;7.50;;;5.60;62.70;;;;;;10498209;28;20227;-78
2022/03/11 00:15:48;;;;;;;8.90;8.00;;;5.50;63.70;;;;;;10463701;28;20216;-79
2022/03/11 00:20:52;;;;;;;8.60;7.80;;;5.50;63.90;;;;;;10480382;28;20235;-79
2022/03/11 00:25:54;;;;;;;10.63;7.67;;;5.40;64.10;;;;;;10496824;28;20270;-78
2022/03/11 00:30:56;;;;;;;8.40;7.50;;;5.40;65.30;;;;;;10479891;28;20189;-78
2022/03/11 00:35:59;;;;;;;10.17;8.03;;;5.40;65.60;;;;;;10497199;28;20680;-78
2022/03/11 00:41:01;;;;;;;11.00;9.33;;;5.40;65.70;;;;;;10479460;28;20195;-78
2022/03/11 00:46:04;;;;;;;10.50;9.40;;;5.30;65.70;;;;;;10507160;28;20229;-77
2022/03/11 00:51:09;;;;;;;11.40;8.97;;;5.40;67.00;;;;;;10483037;28;20567;-79
2022/03/11 00:56:11;;;;;;;10.70;8.90;;;5.30;67.10;;;;;;10479801;28;20295;-78
2022/03/11 01:01:13;;;;;;;11.30;10.10;;;5.30;67.70;;;;;;10481764;28;20257;-78
2022/03/11 01:06:19;;;;;;;11.23;10.13;;;5.30;68.20;;;;;;10462017;28;20251;-78
2022/03/11 01:11:23;;;;;;;12.53;10.50;;;5.20;68.10;;;;;;10477338;28;20721;-78
2022/03/11 01:16:26;;;;;;;11.63;10.40;;;5.20;67.90;;;;;;10477732;28;20664;-78
2022/03/11 01:21:29;;;;;;;13.83;11.30;;;5.10;68.50;;;;;;10495229;28;20687;-77
2022/03/11 01:26:32;;;;;;;14.43;11.20;;;5.10;69.70;;;;;;10495677;28;20590;-78
2022/03/11 01:31:34;;;;;;;15.20;12.47;;;5.00;69.90;;;;;;10477088;28;20493;-80
2022/03/11 01:36:37;;;;;;;13.00;11.70;;;5.00;69.60;;;;;;10476967;28;20223;-77
2022/03/11 01:41:39;;;;;;;12.80;11.50;;;5.00;69.60;;;;;;10476154;28;20201;-79
2022/03/11 01:46:41;;;;;;;14.47;12.97;;;4.90;70.50;;;;;;10493449;28;20266;-78
2022/03/11 01:51:45;;;;;;;12.47;11.03;;;4.90;71.10;;;;;;10495394;28;20196;-79
2022/03/11 01:56:47;;;;;;;14.40;12.90;;;4.90;71.30;;;;;;10479487;28;20299;-78
2022/03/11 02:01:49;;;;;;;14.53;13.00;;;4.80;70.90;;;;;;10475773;28;20193;-79
2022/03/11 02:06:53;;;;;;;16.40;13.70;;;4.80;71.50;;;;;;10480495;28;20204;-80
2022/03/11 02:11:55;;;;;;;17.70;13.97;;;4.70;72.00;;;;;;10477165;28;20197;-80
2022/03/11 02:16:57;;;;;;;16.90;14.67;;;4.70;71.80;;;;;;10465906;28;20281;-80
2022/03/11 02:22:04;;;;;;;17.60;15.20;;;4.60;72.80;;;;;;10464762;28;20652;-80
2022/03/11 02:27:07;;;;;;;22.43;15.17;;;4.60;72.60;;;;;;10481903;28;20224;-80
2022/03/11 02:32:10;;;;;;;16.20;14.47;;;4.60;73.00;;;;;;10492865;28;20200;-79
2022/03/11 02:37:12;;;;;;;17.47;15.60;;;4.50;73.00;;;;;;10464772;28;20220;-81
2022/03/11 02:42:16;;;;;;;16.07;14.40;;;4.50;72.70;;;;;;10497990;28;20204;-80
2022/03/11 02:47:18;;;;;;;18.50;16.37;;;4.40;72.90;;;;;;10479355;28;20224;-80
2022/03/11 02:52:21;;;;;;;19.03;16.73;;;4.40;73.20;;;;;;10487892;22;20613;-81
2022/03/11 02:57:25;;;;;;;18.77;16.77;;;4.40;73.00;;;;;;10466746;28;20314;-80
2022/03/11 03:02:27;;;;;;;18.90;16.47;;;4.30;74.50;;;;;;10446631;28;20221;-81
2022/03/11 03:07:30;;;;;;;18.23;16.30;;;4.30;74.10;;;;;;10446677;28;20212;-80
2022/03/11 03:12:34;;;;;;;19.20;17.20;;;4.30;75.00;;;;;;10464915;28;20221;-81
2022/03/11 03:17:37;;;;;;;20.77;17.50;;;4.40;75.90;;;;;;10452853;28;20645;-80
2022/03/11 03:22:39;;;;;;;20.03;16.80;;;4.40;75.50;;;;;;10455110;28;20219;-81
2022/03/11 03:27:42;;;;;;;22.63;20.07;;;4.40;75.00;;;;;;10480830;28;20216;-80
2022/03/11 03:32:44;;;;;;;21.20;17.63;;;4.40;74.90;;;;;;10475591;28;20232;-81
2022/03/11 03:37:46;;;;;;;20.47;18.10;;;4.40;74.40;;;;;;10456695;28;20208;-81
2022/03/11 03:42:51;;;;;;;20.50;18.13;;;4.30;75.30;;;;;;10447915;28;20259;-80
2022/03/11 03:47:53;;;;;;;22.40;18.67;;;4.30;75.50;;;;;;10456284;28;20221;-81
2022/03/11 03:52:55;;;;;;;22.40;19.30;;;4.30;75.90;;;;;;10482696;28;20204;-81
2022/03/11 03:57:59;;;;;;;24.80;20.00;;;4.20;75.60;;;;;;10456003;28;20197;-81
2022/03/11 04:03:01;;;;;;;23.97;21.10;;;4.20;75.80;;;;;;10446251;28;20221;-80
2022/03/11 04:08:03;;;;;;;23.13;18.67;;;4.20;75.70;;;;;;10453447;28;20213;-82
2022/03/11 04:13:07;;;;;;;21.10;18.83;;;4.10;76.90;;;;;;10430471;28;20197;-82
2022/03/11 04:18:09;;;;;;;24.07;19.90;;;4.10;76.30;;;;;;10468917;28;20247;-82
2022/03/11 04:23:11;;;;;;;22.10;19.30;;;4.00;76.00;;;;;;10478018;28;20201;-82
2022/03/11 04:28:14;;;;;;;26.37;21.30;;;4.00;75.90;;;;;;10465099;28;20312;-81
2022/03/11 04:33:16;;;;;;;23.67;20.77;;;4.00;76.80;;;;;;10442879;28;20203;-81
2022/03/11 04:38:19;;;;;;;25.10;19.83;;;4.00;76.30;;;;;;10449727;28;20229;-82
2022/03/11 04:43:22;;;;;;;23.80;19.47;;;4.00;76.80;;;;;;10461059;28;20205;-83
2022/03/11 04:48:24;;;;;;;24.40;20.57;;;4.00;74.90;;;;;;10465032;28;20262;-82
2022/03/11 04:53:26;;;;;;;23.43;18.77;;;4.10;75.60;;;;;;10450520;28;20204;-81
2022/03/11 04:58:30;;;;;;;22.67;19.83;;;4.10;74.40;;;;;;10432346;28;20225;-82
2022/03/11 05:03:32;;;;;;;22.33;18.40;;;4.10;74.80;;;;;;10463634;28;20546;-82
2022/03/11 05:08:34;;;;;;;21.90;18.70;;;4.10;74.90;;;;;;10443997;28;20221;-81
2022/03/11 05:13:38;;;;;;;19.93;17.83;;;4.20;74.20;;;;;;10458094;28;20657;-82
2022/03/11 05:18:40;;;;;;;23.10;18.33;;;4.20;73.90;;;;;;10476600;28;20247;-83
2022/03/11 05:23:44;;;;;;;19.93;17.23;;;4.10;72.50;;;;;;10490134;28;20283;-83
2022/03/11 05:28:47;;;;;;;21.10;17.53;;;4.10;74.20;;;;;;10436435;28;20213;-82
2022/03/11 05:33:50;;;;;;;19.93;17.80;;;4.10;73.70;;;;;;10505214;28;20197;-83
2022/03/11 05:38:52;;;;;;;20.20;17.50;;;4.00;72.40;;;;;;10435088;28;20256;-84
2022/03/11 05:43:56;;;;;;;18.37;16.20;;;4.00;73.60;;;;;;10453826;28;20235;-84
2022/03/11 05:48:58;;;;;;;22.30;18.30;;;3.90;72.60;;;;;;10477512;28;20221;-84
2022/03/11 05:54:00;;;;;;;20.03;16.90;;;3.90;73.40;;;;;;10431646;28;20205;-83
2022/03/11 05:59:06;;;;;;;21.27;17.53;;;3.80;72.30;;;;;;10429102;28;20217;-83
2022/03/11 06:04:08;;;;;;;20.00;16.43;;;3.80;72.80;;;;;;10441179;28;20214;-83
2022/03/11 06:09:11;;;;;;;21.30;18.43;;;3.70;73.40;;;;;;10440274;28;20224;-82
2022/03/11 06:14:14;;;;;;;20.00;17.10;;;3.60;74.40;;;;;;10440480;28;20192;-82
2022/03/11 06:19:20;;;;;;;20.60;17.00;;;3.60;73.40;;;;;;10457413;28;20205;-82
2022/03/11 06:24:22;;;;;;;20.13;15.77;;;3.60;73.70;;;;;;10457885;28;20206;-82
2022/03/11 06:29:26;;;;;;;18.93;14.40;;;3.70;73.80;;;;;;10499082;28;20287;-82
2022/03/11 06:34:29;;;;;;;16.20;14.50;;;3.70;73.50;;;;;;10483133;28;20192;-82
2022/03/11 06:39:33;;;;;;;17.47;14.37;;;3.80;73.20;;;;;;10499553;28;20239;-82
2022/03/11 06:44:37;;;;;;;17.47;14.03;;;3.80;73.90;;;;;;10481175;28;20224;-83
2022/03/11 06:49:39;;;;;;;17.43;14.10;;;3.90;72.90;;;;;;10481042;28;20648;-83
2022/03/11 06:54:41;;;;;;;15.77;12.47;;;3.90;73.00;;;;;;10481857;28;20209;-83
2022/03/11 06:59:46;;;;;;;20.13;14.90;;;4.00;72.50;;;;;;10464817;28;20220;-82
2022/03/11 07:04:48;;;;;;;14.50;11.80;;;4.10;70.70;;;;;;10465362;28;20212;-82
2022/03/11 07:09:50;;;;;;;11.00;9.10;;;4.10;71.40;;;;;;10482510;28;20212;-82
2022/03/11 07:14:54;;;;;;;11.37;10.27;;;4.20;69.60;;;;;;10483331;28;20242;-82
2022/03/11 07:19:56;;;;;;;11.77;10.03;;;4.30;68.50;;;;;;10482118;28;20247;-82
2022/03/11 07:24:58;;;;;;;14.60;9.33;;;4.50;68.20;;;;;;10481439;28;20216;-82
2022/03/11 07:30:03;;;;;;;10.90;9.30;;;4.60;67.00;;;;;;10481808;28;20719;-82
2022/03/11 07:35:08;;;;;;;11.30;9.70;;;4.70;61.30;;;;;;10503748;28;20196;-82
2022/03/11 07:40:13;;;;;;;12.30;10.23;;;4.80;64.00;;;;;;10452293;28;20296;-83
2022/03/11 07:45:17;;;;;;;11.20;10.10;;;4.90;64.90;;;;;;10433831;28;20206;-82
2022/03/11 07:50:19;;;;;;;10.17;9.17;;;5.00;62.80;;;;;;10437755;28;20248;-82
2022/03/11 07:55:22;;;;;;;14.40;10.40;;;5.20;61.20;;;;;;10505874;28;20189;-82
2022/03/11 08:00:26;;;;;;;13.37;10.67;;;5.50;60.30;;;;;;10469049;28;20239;-82
2022/03/11 08:05:30;;;;;;;11.87;9.47;;;5.70;61.40;;;;;;10471554;28;20220;-82
2022/03/11 08:10:35;;;;;;;13.00;10.37;;;5.90;59.10;;;;;;10470067;28;20671;-82
2022/03/11 08:15:39;;;;;;;14.00;10.50;;;6.10;60.60;;;;;;10488287;28;20196;-82
2022/03/11 08:20:41;;;;;;;13.57;11.33;;;6.40;59.70;;;;;;10521254;28;20223;-82
2022/03/11 08:25:43;;;;;;;11.07;9.97;;;6.60;61.60;;;;;;10473175;28;20224;-82
2022/03/11 08:30:47;;;;;;;12.57;11.20;;;6.80;57.80;;;;;;10463914;28;20921;-82
2022/03/11 08:35:52;;;;;;;13.63;12.20;;;7.00;58.60;;;;;;10475771;28;20670;-82
2022/03/11 08:40:55;;;;;;;14.37;12.07;;;7.10;58.40;;;;;;10509342;28;20216;-82
2022/03/11 08:45:58;;;;;;;13.33;11.00;;;7.20;58.10;;;;;;10509120;28;20220;-82
2022/03/11 08:51:00;;;;;;;13.20;11.40;;;7.30;57.00;;;;;;10526310;22;20310;-78
2022/03/11 08:56:03;;;;;;;12.70;11.40;;;7.30;57.50;;;;;;10539052;28;20200;-78
2022/03/11 09:01:06;;;;;;;12.87;11.57;;;7.30;59.90;;;;;;10541532;28;20220;-79
2022/03/11 09:06:09;;;;;;;12.73;11.27;;;7.50;58.40;;;;;;10512436;28;20240;-78
2022/03/11 09:11:11;;;;;;;12.37;11.07;;;7.70;56.20;;;;;;10525736;28;20219;-78
2022/03/11 09:16:14;;;;;;;13.37;11.97;;;7.80;57.20;;;;;;10495919;28;20228;-79
2022/03/11 09:21:16;;;;;;;14.00;11.43;;;8.00;58.30;;;;;;10505323;28;20207;-79
2022/03/11 09:26:18;;;;;;;11.80;10.30;;;8.20;57.00;;;;;;10493708;28;20244;-78
2022/03/11 09:31:22;;;;;;;12.67;10.87;;;8.40;56.80;;;;;;10521979;28;20565;-78
2022/03/11 09:36:25;;;;;;;11.50;9.93;;;8.60;55.00;;;;;;10511990;28;20238;-79
2022/03/11 09:41:28;;;;;;;16.00;11.23;;;8.80;53.80;;;;;;10521242;28;20218;-80
2022/03/11 09:46:34;;;;;;;16.80;10.50;;;8.90;55.40;;;;;;10493205;28;20273;-79
2022/03/11 09:51:36;;;;;;;10.33;9.23;;;9.10;55.50;;;;;;10522936;28;20224;-79
2022/03/11 09:56:40;;;;;;;14.80;10.50;;;9.40;55.50;;;;;;10498397;28;20207;-80
2022/03/11 10:01:44;;;;;;;11.30;9.93;;;9.70;54.00;;;;;;10509161;28;20234;-80
2022/03/11 10:06:47;;;;;;;10.43;9.33;;;9.90;53.40;;;;;;10496239;28;20220;-79
2022/03/11 10:11:52;;;;;;;10.97;9.90;;;10.10;51.50;;;;;;10504389;28;20733;-79
2022/03/11 10:16:56;;;;;;;10.67;9.57;;;10.00;51.20;;;;;;10515125;28;20250;-79
2022/03/11 10:22:00;;;;;;;11.30;9.10;;;9.90;52.30;;;;;;10504272;28;20228;-79
2022/03/11 10:27:07;;;;;;;12.83;11.17;;;9.80;54.30;;;;;;10497492;28;20259;-80
2022/03/11 10:32:10;;;;;;;16.53;9.30;;;9.70;52.90;;;;;;10497027;28;20216;-81
2022/03/11 10:37:14;;;;;;;9.93;8.93;;;9.60;53.00;;;;;;10480647;28;20300;-80
2022/03/11 10:42:19;;;;;;;10.73;9.70;;;9.60;55.10;;;;;;10498752;28;20216;-80
2022/03/11 10:47:23;;;;;;;11.87;10.63;;;9.50;54.30;;;;;;10479686;28;20208;-81
2022/03/11 10:52:31;;;;;;;11.63;10.53;;;9.60;54.20;;;;;;10497110;28;20741;-80
2022/03/11 10:57:37;;;;;;;11.60;10.40;;;9.60;56.10;;;;;;10498027;28;20188;-81
2022/03/11 11:02:41;;;;;;;11.43;9.87;;;9.50;55.60;;;;;;10497170;28;20215;-81
2022/03/11 11:07:45;;;;;;;11.50;10.30;;;9.50;58.80;;;;;;10479634;28;20240;-80
2022/03/11 11:12:48;;;;;;;12.50;11.17;;;9.60;57.20;;;;;;10482966;28;20219;-80
2022/03/11 11:17:52;;;;;;;13.57;9.90;;;9.60;54.10;;;;;;10487126;28;20188;-82
2022/03/11 11:22:55;;;;;;;12.27;10.97;;;9.70;54.50;;;;;;10486970;28;20238;-81
2022/03/11 11:28:02;;;;;;;15.90;10.03;;;9.70;54.50;;;;;;10486048;28;20684;-80
2022/03/11 11:33:06;;;;;;;12.00;10.60;;;9.80;55.70;;;;;;10505737;28;20212;-80
2022/03/11 11:38:28;;;;;;;12.37;9.90;;;9.90;54.00;;;;;;10510134;28;20203;-81
2022/03/11 11:43:31;;;;;;;12.37;11.07;;;9.90;54.90;;;;;;10501974;28;20603;-82
2022/03/11 11:48:58;;;;;;;13.27;10.47;;;10.00;54.10;;;;;;10531898;28;20259;-81
2022/03/11 11:54:08;;;;;;;14.30;10.50;;;9.90;55.70;;;;;;10528852;28;20222;-82
2022/03/11 11:59:16;;;;;;;12.67;11.37;;;10.00;54.50;;;;;;10527106;28;20303;-81
2022/03/11 12:04:27;;;;;;;12.43;10.53;;;10.10;56.90;;;;;;10546416;28;20199;-81
2022/03/11 12:09:51;;;;;;;11.80;10.50;;;10.10;56.20;;;;;;10547248;28;20243;-81
2022/03/11 12:15:18;;;;;;;15.90;11.27;;;10.10;54.10;;;;;;10549277;28;20195;-81
2022/03/11 12:20:36;;;;;;;13.60;11.60;;;10.20;54.50;;;;;;10528404;28;20212;-81
2022/03/11 12:25:40;;;;;;;13.97;12.00;;;10.30;54.90;;;;;;10488086;28;20699;-81
2022/03/11 12:30:52;;;;;;;11.30;10.13;;;10.30;57.70;;;;;;10527474;28;20699;-83
2022/03/11 12:35:57;;;;;;;12.40;10.40;;;10.20;56.20;;;;;;10491160;28;20675;-82
2022/03/11 12:41:04;;;;;;;12.17;9.50;;;10.30;55.50;;;;;;10489780;28;20805;-82
2022/03/11 12:46:10;;;;;;;12.00;10.77;;;10.40;55.60;;;;;;10505001;28;20215;-83
2022/03/11 12:51:18;;;;;;;11.80;10.60;;;10.50;54.30;;;;;;10485387;28;21028;-81
2022/03/11 12:56:22;;;;;;;9.13;8.20;;;10.50;54.10;;;;;;10484818;28;20192;-82
2022/03/11 13:01:32;;;;;;;11.13;10.00;;;10.50;56.20;;;;;;10524608;28;20803;-82
2022/03/11 13:06:35;;;;;;;12.70;10.33;;;10.60;57.20;;;;;;10526214;28;20226;-82
2022/03/11 13:11:37;;;;;;;11.47;9.97;;;10.60;55.30;;;;;;10526030;28;20306;-81
2022/03/11 13:16:39;;;;;;;13.97;11.00;;;10.70;58.80;;;;;;10485718;28;20198;-81
2022/03/11 13:21:52;;;;;;;12.43;11.13;;;10.80;55.70;;;;;;10484166;28;20755;-81
2022/03/11 13:27:06;;;;;;;16.30;10.97;;;10.90;56.70;;;;;;10521621;28;20233;-82
2022/03/11 13:32:09;;;;;;;13.10;11.53;;;10.90;55.70;;;;;;10498056;28;20226;-83
2022/03/11 13:37:17;;;;;;;13.07;11.67;;;11.00;56.50;;;;;;10496544;28;20280;-82
2022/03/11 13:42:32;;;;;;;12.57;10.67;;;11.00;57.60;;;;;;10478456;28;20220;-83
2022/03/11 13:48:05;;;;;;;11.30;10.10;;;11.00;55.90;;;;;;10482062;28;20220;-82
2022/03/11 13:53:09;;;;;;;11.07;9.77;;;11.10;56.70;;;;;;10520762;28;20227;-81
2022/03/11 13:58:21;;;;;;;11.80;10.60;;;11.10;57.40;;;;;;10482199;28;20199;-82
2022/03/11 14:03:27;;;;;;;14.63;11.50;;;11.20;56.60;;;;;;10485193;28;20201;-82
2022/03/11 14:08:30;;;;;;;14.03;10.50;;;11.20;56.60;;;;;;10481993;28;20224;-82
2022/03/11 14:13:35;;;;;;;12.67;10.77;;;11.20;57.70;;;;;;10478371;28;20196;-82
2022/03/11 14:18:39;;;;;;;12.80;11.23;;;11.30;56.30;;;;;;10499172;28;20227;-82
2022/03/11 14:23:44;;;;;;;13.73;11.60;;;11.40;54.90;;;;;;10477678;28;20279;-82
2022/03/11 14:28:46;;;;;;;12.03;10.27;;;11.50;56.00;;;;;;10482450;28;20219;-82
2022/03/11 14:33:49;;;;;;;14.10;11.10;;;11.60;55.30;;;;;;10537643;28;20671;-82
2022/03/11 14:38:52;;;;;;;14.30;12.03;;;11.70;56.70;;;;;;10519397;28;20255;-82
2022/03/11 14:43:56;;;;;;;11.33;10.13;;;11.90;54.30;;;;;;10518973;28;20461;-82
2022/03/11 14:48:58;;;;;;;19.70;12.10;;;12.00;54.80;;;;;;10530731;22;20861;-82
2022/03/11 14:54:02;;;;;;;10.87;9.70;;;12.00;53.90;;;;;;10494982;28;20251;-82
2022/03/11 14:59:06;;;;;;;12.93;10.60;;;12.10;55.50;;;;;;10513759;28;20258;-82
2022/03/11 15:04:08;;;;;;;11.73;10.47;;;12.20;53.80;;;;;;10496208;28;20198;-82
2022/03/11 15:09:11;;;;;;;15.00;11.43;;;12.20;53.40;;;;;;10510809;28;20636;-82
2022/03/11 15:14:14;;;;;;;12.30;11.07;;;12.30;52.30;;;;;;10491408;28;20204;-82
2022/03/11 15:19:17;;;;;;;15.03;12.47;;;12.40;54.20;;;;;;10509960;28;20216;-82
2022/03/11 15:24:21;;;;;;;15.40;12.27;;;12.30;54.90;;;;;;10492415;28;20648;-82
2022/03/11 15:29:23;;;;;;;15.77;12.40;;;12.30;51.80;;;;;;10475639;28;20239;-82
2022/03/11 15:34:25;;;;;;;14.33;10.80;;;12.50;50.80;;;;;;10493846;28;20192;-82
2022/03/11 15:39:29;;;;;;;15.13;11.10;;;12.50;51.60;;;;;;10510830;28;20567;-82
2022/03/11 15:44:31;;;;;;;13.80;11.53;;;12.60;50.80;;;;;;10511105;28;20653;-82
2022/03/11 15:49:34;;;;;;;12.53;11.23;;;12.60;50.60;;;;;;10512485;28;20312;-81
2022/03/11 15:54:37;;;;;;;13.77;11.10;;;12.70;49.90;;;;;;10509960;28;20188;-82
2022/03/11 15:59:39;;;;;;;13.50;11.07;;;12.80;49.80;;;;;;10508185;28;20205;-82
2022/03/11 16:04:43;;;;;;;13.83;12.27;;;12.80;49.90;;;;;;10434368;28;20200;-82
2022/03/11 16:09:47;;;;;;;16.07;12.00;;;12.70;49.80;;;;;;10434369;28;20312;-82
2022/03/11 16:14:49;;;;;;;14.50;13.00;;;12.70;50.20;;;;;;10451798;28;20220;-82
2022/03/11 16:19:51;;;;;;;15.37;12.10;;;12.60;50.30;;;;;;10454553;28;20213;-83
2022/03/11 16:24:55;;;;;;;13.03;11.43;;;12.60;49.60;;;;;;10511790;28;20219;-82
2022/03/11 16:29:58;;;;;;;17.67;12.70;;;12.60;50.10;;;;;;10471308;28;20282;-82
2022/03/11 16:35:00;;;;;;;16.73;13.57;;;12.50;49.80;;;;;;10488732;28;20203;-82
2022/03/11 16:40:05;;;;;;;14.77;13.17;;;12.50;49.60;;;;;;10488502;28;20318;-83
2022/03/11 16:45:08;;;;;;;14.93;11.67;;;12.40;50.00;;;;;;10506551;28;20211;-82
2022/03/11 16:50:12;;;;;;;16.93;11.57;;;12.30;52.80;;;;;;10470984;28;20232;-83
2022/03/11 16:55:15;;;;;;;13.30;11.90;;;12.00;53.80;;;;;;10489653;28;20205;-83
2022/03/11 17:00:17;;;;;;;14.37;11.30;;;11.80;55.20;;;;;;10489049;28;20224;-83
2022/03/11 17:05:20;;;;;;;13.50;12.10;;;11.70;52.60;;;;;;10470699;28;20196;-82
2022/03/11 17:10:23;;;;;;;17.13;12.60;;;11.50;52.00;;;;;;10504527;28;20212;-82
2022/03/11 17:15:26;;;;;;;15.20;12.20;;;11.40;54.70;;;;;;10503702;28;20269;-84
2022/03/11 17:20:28;;;;;;;18.83;13.20;;;11.30;53.70;;;;;;10469034;28;20217;-83
2022/03/11 17:25:32;;;;;;;15.27;11.97;;;11.30;51.60;;;;;;10467113;28;20224;-83
2022/03/11 17:30:36;;;;;;;17.37;12.30;;;11.40;51.00;;;;;;10467946;28;20231;-84
2022/03/11 17:35:39;;;;;;;13.60;12.20;;;11.40;50.60;;;;;;10472470;28;20201;-84
2022/03/11 17:40:43;;;;;;;14.83;12.47;;;11.40;50.50;;;;;;10509005;28;20220;-83
2022/03/11 17:45:45;;;;;;;15.87;12.50;;;11.40;50.00;;;;;;10482868;28;20203;-84
2022/03/11 17:50:47;;;;;;;17.30;13.10;;;11.40;50.10;;;;;;10455187;28;20239;-86
2022/03/11 17:55:51;;;;;;;13.73;12.40;;;11.30;50.30;;;;;;10461990;28;20231;-84
2022/03/11 18:00:53;;;;;;;13.00;11.50;;;11.30;51.10;;;;;;10486218;28;20628;-85
2022/03/11 18:05:57;;;;;;;14.77;12.63;;;11.20;49.80;;;;;;10473766;28;20719;-85
2022/03/11 18:11:02;;;;;;;18.63;13.00;;;11.20;50.10;;;;;;10473740;28;20768;-85
2022/03/11 18:16:05;;;;;;;13.40;12.03;;;11.10;49.40;;;;;;10483609;28;20656;-84
2022/03/11 18:21:07;;;;;;;15.40;12.63;;;11.00;49.50;;;;;;10481298;28;20243;-85
2022/03/11 18:26:10;;;;;;;11.57;10.30;;;11.00;51.30;;;;;;10496326;28;20243;-82
2022/03/11 18:31:14;;;;;;;15.40;12.77;;;10.90;51.30;;;;;;10492525;28;20228;-83
2022/03/11 18:36:17;;;;;;;15.37;13.13;;;10.80;51.70;;;;;;10474921;28;20204;-84
2022/03/11 18:41:20;;;;;;;13.60;11.67;;;10.70;52.50;;;;;;10467725;28;20216;-85
2022/03/11 18:46:27;;;;;;;14.67;12.30;;;10.60;52.30;;;;;;10473507;28;20291;-83
2022/03/11 18:51:30;;;;;;;13.83;12.10;;;10.50;51.30;;;;;;10463374;28;20234;-84
2022/03/11 18:56:34;;;;;;;13.63;12.23;;;10.40;53.00;;;;;;10476061;28;20308;-85
2022/03/11 19:01:37;;;;;;;12.27;10.97;;;10.30;51.30;;;;;;10482098;28;20228;-84
2022/03/11 19:06:40;;;;;;;14.13;11.90;;;10.30;52.60;;;;;;10448226;28;20219;-84
2022/03/11 19:11:44;;;;;;;15.50;12.10;;;10.20;53.60;;;;;;10489566;28;20277;-85
2022/03/11 19:16:46;;;;;;;12.93;11.20;;;10.10;53.40;;;;;;10514297;28;20268;-83
2022/03/11 19:21:48;;;;;;;13.10;11.73;;;10.10;54.20;;;;;;10461781;28;20616;-83
2022/03/11 19:26:52;;;;;;;14.00;11.90;;;10.00;53.30;;;;;;10470222;28;20209;-84
2022/03/11 19:31:55;;;;;;;13.70;12.27;;;9.90;53.50;;;;;;10444691;28;20312;-84
2022/03/11 19:37:02;;;;;;;13.90;12.13;;;9.90;53.70;;;;;;10475668;28;20261;-83
2022/03/11 19:42:09;;;;;;;13.90;12.43;;;9.80;53.80;;;;;;10473111;28;20227;-83
2022/03/11 19:47:11;;;;;;;12.67;10.90;;;9.70;54.10;;;;;;10452131;28;20229;-83
2022/03/11 19:52:14;;;;;;;16.00;12.40;;;9.70;54.10;;;;;;10461139;28;20228;-84
2022/03/11 19:57:17;;;;;;;14.33;12.30;;;9.60;54.90;;;;;;10466301;28;20287;-85
2022/03/11 20:02:20;;;;;;;17.40;13.00;;;9.50;55.70;;;;;;10465275;28;20610;-83
2022/03/11 20:07:23;;;;;;;14.73;12.83;;;9.50;55.10;;;;;;10488254;28;20208;-83
2022/03/11 20:12:27;;;;;;;16.37;12.90;;;9.40;55.10;;;;;;10450566;28;20220;-84
2022/03/11 20:17:31;;;;;;;16.00;14.00;;;9.40;56.30;;;;;;10492743;28;20188;-83
2022/03/11 20:22:35;;;;;;;16.30;13.70;;;9.30;56.00;;;;;;10446664;28;20232;-84
2022/03/11 20:27:42;;;;;;;16.03;14.00;;;9.20;55.80;;;;;;10489144;28;20254;-82
2022/03/11 20:32:44;;;;;;;17.30;12.70;;;9.20;56.60;;;;;;10469360;28;20224;-82
2022/03/11 20:37:47;;;;;;;11.90;10.80;;;9.10;54.90;;;;;;10477858;28;20259;-83
2022/03/11 20:42:51;;;;;;;15.63;11.17;;;9.10;56.70;;;;;;10467286;28;20891;-83
2022/03/11 20:47:56;;;;;;;14.70;12.50;;;9.00;56.90;;;;;;10464151;28;20761;-83
2022/03/11 20:53:01;;;;;;;39.10;25.47;;;9.00;56.50;;;;;;10441565;28;20282;-85
2022/03/11 20:58:05;;;;;;;31.03;23.00;;;8.90;57.20;;;;;;10480658;28;20190;-83
2022/03/11 21:03:08;;;;;;;31.87;20.90;;;8.80;58.60;;;;;;10448449;28;20680;-84
2022/03/11 21:08:12;;;;;;;22.97;19.30;;;8.80;59.00;;;;;;10455699;28;20216;-82
2022/03/11 21:13:15;;;;;;;28.73;20.93;;;8.80;57.60;;;;;;10480159;28;20231;-83
2022/03/11 21:18:20;;;;;;;18.00;16.20;;;8.60;57.80;;;;;;10466880;28;21170;-82
2022/03/11 21:23:34;;;;;;;19.67;14.30;;;8.60;58.00;;;;;;10496966;28;20227;-83
2022/03/11 21:28:37;;;;;;;16.73;14.97;;;8.50;57.30;;;;;;10452850;28;20212;-82
2022/03/11 21:33:39;;;;;;;16.33;13.70;;;8.40;57.80;;;;;;10453651;28;20196;-82
2022/03/11 21:38:41;;;;;;;16.03;14.03;;;8.20;58.50;;;;;;10462242;28;20576;-82
2022/03/11 21:43:47;;;;;;;14.27;12.20;;;8.10;59.20;;;;;;10475496;28;20730;-82
2022/03/11 21:48:49;;;;;;;17.40;14.47;;;8.00;58.30;;;;;;10462843;28;20224;-83
2022/03/11 21:53:53;;;;;;;16.70;13.83;;;7.80;58.10;;;;;;10480478;28;20196;-82
2022/03/11 21:59:01;;;;;;;17.87;14.53;;;7.60;59.20;;;;;;10480391;28;20216;-83
2022/03/11 22:04:03;;;;;;;17.10;13.87;;;7.40;59.10;;;;;;10462360;28;20204;-82
2022/03/11 22:09:05;;;;;;;16.87;14.93;;;7.30;59.60;;;;;;10480941;28;20247;-83
2022/03/11 22:14:09;;;;;;;17.90;15.37;;;7.20;60.00;;;;;;10466151;28;20194;-83
2022/03/11 22:19:14;;;;;;;18.13;15.10;;;7.00;59.60;;;;;;10487035;28;20233;-82
2022/03/11 22:24:17;;;;;;;14.50;13.00;;;6.90;60.90;;;;;;10490115;28;20748;-84
2022/03/11 22:29:23;;;;;;;17.47;13.43;;;6.80;59.60;;;;;;10497707;28;20307;-84
2022/03/11 22:34:26;;;;;;;15.60;13.20;;;6.70;60.10;;;;;;10501777;28;20255;-82
2022/03/11 22:39:29;;;;;;;14.63;12.90;;;6.70;60.30;;;;;;10496030;28;20211;-84
2022/03/11 22:44:33;;;;;;;15.70;14.10;;;6.60;61.10;;;;;;10518562;28;20617;-84
2022/03/11 22:49:36;;;;;;;15.03;13.43;;;6.50;61.00;;;;;;10461362;28;20325;-84
2022/03/11 22:54:47;;;;;;;14.90;13.40;;;6.50;61.50;;;;;;10481983;28;20729;-85
2022/03/11 22:59:50;;;;;;;16.93;13.80;;;6.50;61.20;;;;;;10490798;28;20216;-85
2022/03/11 23:04:53;;;;;;;18.47;14.30;;;6.40;61.30;;;;;;10489859;28;20642;-83
2022/03/11 23:09:55;;;;;;;16.63;14.03;;;6.40;61.90;;;;;;10522757;28;20797;-84
2022/03/11 23:14:58;;;;;;;17.03;14.80;;;6.30;62.80;;;;;;10486498;28;20243;-82
2022/03/11 23:20:00;;;;;;;17.93;14.37;;;6.20;63.10;;;;;;10470020;28;20623;-82
2022/03/11 23:25:03;;;;;;;17.17;14.07;;;6.20;63.00;;;;;;10478750;28;20196;-82
2022/03/11 23:30:08;;;;;;;30.87;20.90;;;6.20;63.80;;;;;;10474306;28;20242;-82
2022/03/11 23:35:11;;;;;;;23.07;17.90;;;6.20;62.30;;;;;;10474931;28;20631;-80
2022/03/11 23:40:15;;;;;;;14.30;12.70;;;6.10;63.60;;;;;;10452873;28;20681;-83
2022/03/11 23:45:18;;;;;;;13.93;11.83;;;6.10;64.20;;;;;;10503886;28;20211;-82
2022/03/11 23:50:28;;;;;;;14.37;12.83;;;6.10;64.60;;;;;;10489662;28;20235;-83
2022/03/11 23:55:31;;;;;;;13.67;12.10;;;6.10;66.10;;;;;;10469494;28;20196;-81
